Time;durP1;ratioP1;P1;durP2;ratioP2;P2;SDS_P1;SDS_P2;PMS_P1;PMS_P2;Temp;Humidity;BMP_temperature;BMP_pressure;BME280_temperature;BME280_humidity;BME280_pressure;Samples;Min_cycle;Max_cycle;Signal;HPM_P1;HPM_P2
2023/05/02 00:01:12;;;;;;;5.30;2.20;;;;;;;12.55;64.24;100859.41;107937;1252;62246;-69
2023/05/02 00:03:39;;;;;;;5.40;2.20;;;;;;;12.50;65.26;100863.30;107874;1252;58959;-70
2023/05/02 00:06:05;;;;;;;6.20;2.50;;;;;;;12.46;66.10;100860.66;108051;1253;62215;-68
2023/05/02 00:08:32;;;;;;;4.70;2.30;;;;;;;12.41;66.40;100863.54;107809;1253;74703;-68
2023/05/02 00:10:59;;;;;;;4.30;2.20;;;;;;;12.37;66.53;100861.30;107756;1254;70782;-68
2023/05/02 00:13:25;;;;;;;6.40;2.70;;;;;;;12.34;67.23;100861.86;108339;1253;72453;-69
2023/05/02 00:15:52;;;;;;;4.90;2.70;;;;;;;12.32;68.37;100864.29;108031;1253;59432;-69
2023/05/02 00:18:18;;;;;;;6.30;2.60;;;;;;;12.29;69.23;100864.10;107880;1253;61247;-68
2023/05/02 00:20:45;;;;;;;5.10;2.60;;;;;;;12.25;69.53;100863.96;107807;1253;73508;-69
2023/05/02 00:23:12;;;;;;;4.80;2.60;;;;;;;12.22;69.88;100861.11;107887;1253;71536;-69
2023/05/02 00:25:48;;;;;;;5.80;3.00;;;;;;;12.20;70.55;100865.15;108066;1253;73554;-69
2023/05/02 00:28:14;;;;;;;6.20;3.10;;;;;;;12.19;70.83;100865.64;107972;1253;61231;-68
2023/05/02 00:30:45;;;;;;;8.10;2.90;;;;;;;12.17;71.10;100863.98;108485;1253;61142;-68
2023/05/02 00:33:13;;;;;;;7.70;3.30;;;;;;;12.16;71.67;100866.48;107918;1253;74433;-68
2023/05/02 00:35:40;;;;;;;5.10;3.10;;;;;;;12.11;72.28;100868.29;107542;1253;211579;-69
2023/05/02 00:38:07;;;;;;;5.50;3.30;;;;;;;12.07;72.67;100867.95;107621;1254;71456;-68
2023/05/02 00:41:04;;;;;;;4.60;3.20;;;;;;;12.01;73.55;100866.27;107967;1253;62163;-69
2023/05/02 00:43:30;;;;;;;7.10;3.70;;;;;;;11.94;74.50;100868.91;108335;1252;60073;-69
2023/05/02 00:45:57;;;;;;;7.30;3.60;;;;;;;11.87;74.79;100867.35;108005;1253;74392;-69
2023/05/02 00:48:25;;;;;;;6.30;3.50;;;;;;;11.83;75.10;100873.50;108093;1253;71024;-69
2023/05/02 00:50:52;;;;;;;5.80;3.50;;;;;;;11.81;75.22;100873.14;108270;1253;71301;-70
2023/05/02 00:53:18;;;;;;;5.30;3.50;;;;;;;11.80;75.27;100875.77;107678;1253;61511;-67
2023/05/02 00:55:45;;;;;;;7.80;3.80;;;;;;;11.79;75.79;100879.09;108012;1252;61207;-69
2023/05/02 00:58:15;;;;;;;7.80;3.40;;;;;;;11.77;76.01;100879.96;107812;1254;73549;-67
2023/05/02 01:00:57;;;;;;;10.20;3.80;;;;;;;11.75;76.48;100876.35;108390;1253;70940;-69
2023/05/02 01:03:29;;;;;;;7.10;3.80;;;;;;;11.73;76.53;100879.13;108291;1253;71354;-68
2023/05/02 01:06:30;;;;;;;6.80;3.60;;;;;;;11.71;77.15;100878.08;107987;1254;61208;-69
2023/05/02 01:09:33;;;;;;;6.90;3.60;;;;;;;11.70;76.90;100878.59;108654;1253;59377;-68
2023/05/02 01:12:03;;;;;;;6.40;3.50;;;;;;;11.70;76.80;100878.14;107805;1253;74951;-68
2023/05/02 01:14:35;;;;;;;8.20;4.00;;;;;;;11.70;76.97;100874.79;107839;1254;71302;-70
2023/05/02 01:17:07;;;;;;;7.40;3.70;;;;;;;11.69;77.54;100873.70;108107;1252;72676;-69
2023/05/02 01:19:40;;;;;;;7.20;3.70;;;;;;;11.68;77.56;100873.67;108473;1253;60438;-67
2023/05/02 01:22:10;;;;;;;7.00;3.90;;;;;;;11.66;77.64;100871.23;108068;1253;61039;-68
2023/05/02 01:24:54;;;;;;;8.80;3.90;;;;;;;11.66;77.70;100877.29;107983;1253;73500;-69
2023/05/02 01:27:33;;;;;;;7.40;3.70;;;;;;;11.65;77.81;100882.31;108161;1252;71180;-69
2023/05/02 01:30:02;;;;;;;6.10;3.60;;;;;;;11.64;77.92;100885.77;108144;1253;70505;-68
2023/05/02 01:32:32;;;;;;;7.00;3.80;;;;;;;11.63;77.90;100890.99;108418;1253;60369;-68
2023/05/02 01:35:00;;;;;;;7.00;4.10;;;;;;;11.62;78.04;100887.48;108723;1253;60191;-68
2023/05/02 01:37:29;;;;;;;5.60;3.80;;;;;;;11.59;78.51;100889.55;108453;1253;74458;-68
2023/05/02 01:39:57;;;;;;;6.40;3.50;;;;;;;11.55;78.41;100892.13;109114;1253;71248;-69
2023/05/02 01:42:26;;;;;;;7.30;3.50;;;;;;;11.54;78.21;100889.91;109176;1253;72760;-69
2023/05/02 01:44:55;;;;;;;8.00;4.10;;;;;;;11.54;78.09;100892.31;108315;1253;61442;-68
2023/05/02 01:47:23;;;;;;;7.80;4.50;;;;;;;11.54;77.08;100893.30;108860;1253;59116;-69
2023/05/02 01:49:50;;;;;;;7.60;5.20;;;;;;;11.53;74.84;100900.52;108578;1253;74469;-67
2023/05/02 01:52:21;;;;;;;10.20;5.80;;;;;;;11.59;74.16;100896.83;108058;1252;71274;-68
2023/05/02 01:54:50;;;;;;;11.50;5.90;;;;;;;11.64;74.02;100900.52;108407;1252;72781;-67
2023/05/02 01:57:17;;;;;;;11.20;6.90;;;;;;;11.68;74.12;100905.84;107913;1253;60748;-68
2023/05/02 01:59:49;;;;;;;11.40;6.20;;;;;;;11.71;74.22;100906.11;108056;1252;61110;-70
2023/05/02 02:02:16;;;;;;;10.20;6.40;;;;;;;11.75;73.93;100911.27;108287;1253;74789;-67
2023/05/02 02:04:46;;;;;;;10.60;5.90;;;;;;;11.78;73.89;100915.70;108662;1253;71671;-68
2023/05/02 02:07:13;;;;;;;11.10;6.50;;;;;;;11.80;74.15;100915.67;108827;1253;74516;-68
2023/05/02 02:09:40;;;;;;;11.40;6.20;;;;;;;11.81;73.92;100918.45;108423;1252;60914;-68
2023/05/02 02:12:09;;;;;;;10.80;6.10;;;;;;;11.83;74.11;100919.87;108518;1253;61139;-68
2023/05/02 02:14:38;;;;;;;11.10;6.50;;;;;;;11.85;74.38;100918.84;108029;1253;73916;-68
2023/05/02 02:17:12;;;;;;;12.80;6.60;;;;;;;11.83;74.53;100924.08;108339;1253;71057;-69
2023/05/02 02:19:40;;;;;;;12.40;7.40;;;;;;;11.80;75.02;100926.27;108558;1253;71430;-69
2023/05/02 02:22:08;;;;;;;14.30;8.60;;;;;;;11.80;75.18;100921.33;108495;1253;60472;-69
2023/05/02 02:24:38;;;;;;;14.50;8.60;;;;;;;11.77;75.41;100928.52;108688;1253;61305;-69
2023/05/02 02:27:04;;;;;;;13.00;9.20;;;;;;;11.74;75.76;100931.38;108568;1253;75036;-69
2023/05/02 02:29:31;;;;;;;12.60;9.20;;;;;;;11.75;75.67;100927.77;108024;1253;61257;-69
2023/05/02 02:31:58;;;;;;;17.10;10.50;;;;;;;11.74;76.03;100929.27;108033;1252;73268;-71
2023/05/02 02:34:24;;;;;;;14.90;10.00;;;;;;;11.72;76.33;100934.10;108073;1253;61334;-69
2023/05/02 02:37:04;;;;;;;15.70;10.20;;;;;;;11.70;76.36;100939.08;108159;1253;61225;-68
2023/05/02 02:39:36;;;;;;;15.20;9.90;;;;;;;11.69;76.68;100938.95;107934;1253;73121;-69
2023/05/02 02:42:12;;;;;;;15.50;10.20;;;;;;;11.67;76.75;100939.63;108260;1253;71265;-68
2023/05/02 02:44:47;;;;;;;16.70;11.20;;;;;;;11.67;76.98;100939.98;107861;1253;72497;-68
2023/05/02 02:47:16;;;;;;;14.70;10.00;;;;;;;11.67;76.90;100947.10;107943;1253;61319;-69
2023/05/02 02:49:49;;;;;;;19.80;11.80;;;;;;;11.64;77.81;100945.85;107908;1253;61228;-67
2023/05/02 02:52:25;;;;;;;17.30;12.80;;;;;;;11.62;78.05;100948.89;108056;1253;73499;-69
2023/05/02 02:54:58;;;;;;;19.40;12.00;;;;;;;11.59;78.87;100951.33;108198;1256;70301;-69
2023/05/02 02:57:46;;;;;;;19.30;13.20;;;;;;;11.54;79.85;100958.49;107910;1252;71648;-68
2023/05/02 03:00:21;;;;;;;19.50;12.80;;;;;;;11.51;80.43;100961.54;108245;1253;63083;-69
2023/05/02 03:02:47;;;;;;;20.90;12.90;;;;;;;11.49;80.48;100968.86;107883;1252;61224;-68
2023/05/02 03:05:15;;;;;;;24.00;15.90;;;;;;;11.45;81.11;100970.17;107934;1253;74819;-69
2023/05/02 03:07:41;;;;;;;19.90;14.30;;;;;;;11.44;81.43;100971.14;108343;1252;72143;-68
2023/05/02 03:10:08;;;;;;;19.40;13.50;;;;;;;11.45;81.44;100973.89;108093;1253;73239;-69
2023/05/02 03:12:35;;;;;;;19.80;15.00;;;;;;;11.38;82.34;100980.10;107869;1254;61225;-69
2023/05/02 03:15:29;;;;;;;21.90;14.50;;;;;;;11.40;82.35;100978.33;108166;1253;61174;-69
2023/05/02 03:17:56;;;;;;;20.30;14.00;;;;;;;11.40;82.54;100985.57;108082;1253;73657;-69
2023/05/02 03:20:23;;;;;;;19.40;13.10;;;;;;;11.36;83.14;100991.50;107515;1253;71752;-70
2023/05/02 03:22:49;;;;;;;17.80;12.80;;;;;;;11.34;83.13;100986.39;108322;1253;71870;-68
2023/05/02 03:25:16;;;;;;;20.40;14.40;;;;;;;11.30;83.75;100993.38;108111;1253;61973;-70
2023/05/02 03:27:42;;;;;;;21.10;13.90;;;;;;;11.29;83.83;100991.59;108170;1253;59175;-68
2023/05/02 03:30:09;;;;;;;22.60;14.70;;;;;;;11.28;83.84;100994.31;107962;1253;62061;-69
2023/05/02 03:32:36;;;;;;;20.80;14.20;;;;;;;11.28;83.97;100992.59;107901;1253;71235;-68
2023/05/02 03:35:03;;;;;;;19.20;13.90;;;;;;;11.29;84.02;100997.43;108146;1253;72638;-68
2023/05/02 03:37:29;;;;;;;19.50;13.80;;;;;;;11.26;83.92;100992.95;107998;1254;61644;-68
2023/05/02 03:39:56;;;;;;;19.50;14.10;;;;;;;11.26;83.66;100991.60;107947;1253;61198;-69
2023/05/02 03:42:23;;;;;;;20.00;13.80;;;;;;;11.28;83.46;100989.96;108263;1253;74680;-66
2023/05/02 03:44:53;;;;;;;20.80;13.30;;;;;;;11.30;83.40;100994.27;108269;1254;70909;-68
2023/05/02 03:47:20;;;;;;;17.80;12.70;;;;;;;11.31;83.58;100997.36;108126;1253;72656;-69
2023/05/02 03:49:47;;;;;;;18.00;13.00;;;;;;;11.31;83.71;100998.09;107911;1253;62054;-69
2023/05/02 03:52:13;;;;;;;19.50;12.10;;;;;;;11.31;83.80;100996.34;108422;1253;59655;-69
2023/05/02 03:54:42;;;;;;;17.70;12.40;;;;;;;11.29;84.31;101000.48;107550;1253;74695;-69
2023/05/02 03:57:09;;;;;;;20.70;13.10;;;;;;;11.27;84.41;101005.44;108002;1253;70994;-68
2023/05/02 03:59:40;;;;;;;18.50;12.20;;;;;;;11.26;84.85;101006.11;108551;1253;71707;-69
2023/05/02 04:02:10;;;;;;;17.10;11.80;;;;;;;11.28;84.73;101004.48;108104;1252;61211;-70
2023/05/02 04:04:39;;;;;;;18.00;11.80;;;;;;;11.29;84.91;101008.25;107848;1253;61301;-69
2023/05/02 04:07:14;;;;;;;18.50;12.40;;;;;;;11.30;85.05;101007.45;108010;1253;73194;-67
2023/05/02 04:09:41;;;;;;;17.10;11.40;;;;;;;11.30;85.34;101015.21;107934;1253;70975;-67
2023/05/02 04:12:07;;;;;;;16.30;11.10;;;;;;;11.29;85.68;101015.48;107987;1252;71154;-70
2023/05/02 04:14:34;;;;;;;14.80;10.40;;;;;;;11.31;85.81;101025.91;107932;1253;61093;-67
2023/05/02 04:17:01;;;;;;;16.10;10.90;;;;;;;11.30;86.21;101031.33;108217;1253;59560;-68
2023/05/02 04:19:28;;;;;;;15.40;11.20;;;;;;;11.31;86.30;101029.77;108629;1252;74479;-68
2023/05/02 04:21:54;;;;;;;15.90;10.90;;;;;;;11.32;86.60;101030.73;107898;1254;70082;-69
2023/05/02 04:24:21;;;;;;;18.50;12.20;;;;;;;11.33;86.75;101035.80;107706;1253;70192;-69
2023/05/02 04:26:48;;;;;;;18.80;12.30;;;;;;;11.34;86.65;101042.06;107971;1253;61217;-68
2023/05/02 04:29:15;;;;;;;18.80;12.10;;;;;;;11.31;87.52;101046.45;107646;1253;61122;-69
2023/05/02 04:31:41;;;;;;;19.90;12.30;;;;;;;11.31;87.44;101048.14;108398;1253;74568;-69
2023/05/02 04:34:08;;;;;;;18.50;13.00;;;;;;;11.32;87.83;101050.08;108068;1254;69156;-72
2023/05/02 04:36:36;;;;;;;25.20;16.60;;;;;;;11.30;89.15;101052.57;108472;1257;72736;-71
2023/05/02 04:39:05;;;;;;;25.20;16.30;;;;;;;11.27;90.40;101055.57;108119;1254;61434;-71
2023/05/02 04:41:33;;;;;;;22.50;14.20;;;;;;;11.21;91.84;101069.13;108006;1253;61154;-71
2023/05/02 04:43:59;;;;;;;22.30;13.80;;;;;;;11.10;93.65;101070.67;107912;1253;73742;-70
2023/05/02 04:46:26;;;;;;;24.00;14.60;;;;;;;10.99;94.85;101080.92;108054;1253;70908;-70
2023/05/02 04:48:53;;;;;;;29.40;17.20;;;;;;;10.87;96.32;101081.92;108259;1254;71166;-71
2023/05/02 04:51:20;;;;;;;29.90;18.50;;;;;;;10.78;96.89;101082.66;108097;1253;61206;-71
2023/05/02 04:53:46;;;;;;;44.70;22.30;;;;;;;10.74;97.69;101084.23;108241;1252;61232;-69
2023/05/02 04:56:13;;;;;;;38.10;20.40;;;;;;;10.70;98.52;101087.34;108239;1252;75139;-70
2023/05/02 04:58:39;;;;;;;26.60;16.90;;;;;;;10.69;98.67;101094.34;108219;1253;69900;-69
2023/05/02 05:01:06;;;;;;;27.00;17.40;;;;;;;10.64;100.00;101099.98;107918;1252;61365;-69
2023/05/02 05:03:33;;;;;;;30.40;16.60;;;;;;;10.59;100.00;101104.59;107793;1252;62042;-69
2023/05/02 05:06:01;;;;;;;25.60;16.10;;;;;;;10.55;100.00;101107.11;108362;1253;61243;-69
2023/05/02 05:08:28;;;;;;;26.40;16.30;;;;;;;10.53;100.00;101115.29;108102;1253;73468;-72
2023/05/02 05:10:55;;;;;;;24.20;14.70;;;;;;;10.49;100.00;101122.29;108310;1252;71327;-75
2023/05/02 05:13:22;;;;;;;24.60;14.50;;;;;;;10.45;100.00;101125.40;108011;1253;71815;-74
2023/05/02 05:15:50;;;;;;;24.00;13.90;;;;;;;10.40;100.00;101129.00;107953;1252;61220;-74
2023/05/02 05:18:17;;;;;;;19.90;12.30;;;;;;;10.39;100.00;101132.98;107422;1259;60122;-74
2023/05/02 05:20:43;;;;;;;19.10;12.80;;;;;;;10.37;100.00;101135.67;107647;1253;74526;-74
2023/05/02 05:23:10;;;;;;;17.30;11.30;;;;;;;10.35;100.00;101140.92;108352;1252;71028;-74
2023/05/02 05:25:39;;;;;;;16.40;11.10;;;;;;;10.30;100.00;101147.73;108200;1253;72353;-74
2023/05/02 05:28:06;;;;;;;17.40;10.30;;;;;;;10.26;100.00;101151.17;107810;1253;61282;-74
2023/05/02 05:30:33;;;;;;;13.60;9.00;;;;;;;10.23;100.00;101154.35;107900;1252;61202;-73
2023/05/02 05:33:00;;;;;;;8.70;4.60;;;;;;;10.15;100.00;101161.08;108123;1254;75479;-75
2023/05/02 05:35:27;;;;;;;6.60;3.50;;;;;;;10.03;100.00;101166.45;108151;1253;71160;-74
2023/05/02 05:37:54;;;;;;;3.80;2.70;;;;;;;9.94;100.00;101176.02;108130;1252;71252;-75
2023/05/02 05:40:21;;;;;;;5.50;3.00;;;;;;;9.89;100.00;101171.65;108163;1253;61294;-73
2023/05/02 05:42:48;;;;;;;4.20;2.90;;;;;;;9.82;100.00;101178.04;108310;1253;60731;-72
2023/05/02 05:45:16;;;;;;;3.50;2.10;;;;;;;9.76;100.00;101184.38;108165;1256;74709;-74
2023/05/02 05:47:43;;;;;;;3.10;2.00;;;;;;;9.67;100.00;101189.42;107762;1254;72514;-73
2023/05/02 05:50:10;;;;;;;4.00;1.90;;;;;;;9.62;100.00;101197.02;107884;1253;72599;-72
2023/05/02 05:52:37;;;;;;;3.10;1.70;;;;;;;9.60;100.00;101202.70;108090;1252;61218;-73
2023/05/02 05:55:04;;;;;;;2.60;1.90;;;;;;;9.56;99.96;101212.05;108044;1258;59585;-73
2023/05/02 05:57:31;;;;;;;3.70;1.60;;;;;;;9.50;98.42;101222.39;108544;1253;74684;-74
2023/05/02 05:59:58;;;;;;;4.20;1.50;;;;;;;9.36;97.03;101226.42;108313;1254;70981;-73
2023/05/02 06:02:25;;;;;;;6.30;2.20;;;;;;;9.30;96.44;101233.42;107937;1254;71457;-73
2023/05/02 06:04:52;;;;;;;3.40;1.70;;;;;;;9.25;95.91;101240.45;107680;1253;61400;-73
2023/05/02 06:07:19;;;;;;;4.40;2.00;;;;;;;9.20;96.02;101241.98;108195;1256;59202;-75
2023/05/02 06:09:46;;;;;;;5.40;2.10;;;;;;;9.19;96.17;101245.95;108275;1253;76654;-76
2023/05/02 06:12:15;;;;;;;6.30;2.20;;;;;;;9.22;95.83;101256.32;108299;1253;70757;-75
2023/05/02 06:14:42;;;;;;;7.00;2.20;;;;;;;9.24;95.48;101259.95;108068;1254;72184;-76
2023/05/02 06:17:08;;;;;;;5.60;2.20;;;;;;;9.25;95.00;101265.35;108419;1258;59943;-75
2023/05/02 06:19:35;;;;;;;9.20;2.40;;;;;;;9.29;95.17;101266.48;108342;1253;61135;-74
2023/05/02 06:22:02;;;;;;;6.20;2.10;;;;;;;9.33;94.76;101273.02;107959;1257;74475;-74
2023/05/02 06:24:29;;;;;;;6.10;2.40;;;;;;;9.31;94.06;101276.00;107660;1254;69956;-74
2023/05/02 06:26:57;;;;;;;5.30;2.30;;;;;;;9.33;93.23;101280.36;107934;1256;71473;-74
2023/05/02 06:29:23;;;;;;;6.30;2.50;;;;;;;9.47;93.70;101284.90;108747;1252;61124;-78
2023/05/02 06:31:54;;;;;;;7.70;2.60;;;;;;;9.61;93.22;101286.48;108090;1253;61136;-75
2023/05/02 06:34:21;;;;;;;7.70;2.60;;;;;;;9.67;91.06;101297.73;108342;1254;73383;-75
2023/05/02 06:36:52;;;;;;;8.30;2.90;;;;;;;9.66;89.28;101305.04;107971;1254;70881;-75
2023/05/02 06:39:19;;;;;;;9.70;3.00;;;;;;;9.58;87.62;101310.56;108194;1254;73240;-75
2023/05/02 06:41:47;;;;;;;6.90;2.30;;;;;;;9.56;87.52;101317.48;107934;1254;61244;-74
2023/05/02 06:44:14;;;;;;;13.20;3.10;;;;;;;9.55;86.87;101320.05;107970;1253;59269;-75
2023/05/02 06:46:41;;;;;;;7.80;2.70;;;;;;;9.60;87.39;101323.08;108000;1253;73681;-76
2023/05/02 06:49:08;;;;;;;7.90;2.90;;;;;;;9.63;86.72;101327.64;108576;1254;68947;-75
2023/05/02 06:51:34;;;;;;;9.00;3.00;;;;;;;9.70;86.33;101334.67;108371;1253;72386;-75
2023/05/02 06:54:01;;;;;;;8.00;2.80;;;;;;;9.78;86.35;101333.27;107984;1254;61279;-76
2023/05/02 06:56:28;;;;;;;10.10;2.80;;;;;;;9.89;85.62;101332.94;107931;1253;61284;-77
2023/05/02 06:58:55;;;;;;;9.60;3.30;;;;;;;9.98;85.00;101337.70;107851;1253;74988;-77
2023/05/02 07:01:22;;;;;;;7.30;2.50;;;;;;;10.07;85.20;101340.69;108168;1253;69581;-76
2023/05/02 07:03:49;;;;;;;9.50;2.60;;;;;;;10.06;84.41;101344.29;107917;1252;71183;-77
2023/05/02 07:06:16;;;;;;;8.50;2.60;;;;;;;10.05;84.07;101345.64;108685;1253;61682;-77
2023/05/02 07:08:43;;;;;;;7.70;2.40;;;;;;;10.05;83.10;101358.73;108719;1253;59735;-77
2023/05/02 07:11:10;;;;;;;11.00;2.80;;;;;;;10.02;79.14;101360.23;108087;1253;73209;-78
2023/05/02 07:13:37;;;;;;;7.80;2.10;;;;;;;10.03;78.01;101359.61;107891;1253;70903;-78
2023/05/02 07:16:05;;;;;;;9.00;2.40;;;;;;;10.09;77.55;101363.63;107838;1252;71501;-76
2023/05/02 07:18:32;;;;;;;9.80;2.40;;;;;;;10.20;76.39;101369.08;108014;1253;62031;-77
2023/05/02 07:21:00;;;;;;;7.50;2.50;;;;;;;10.28;75.08;101370.06;108239;1253;60399;-77
2023/05/02 07:23:27;;;;;;;8.30;2.40;;;;;;;10.38;74.89;101367.78;108232;1254;74575;-76
2023/05/02 07:25:54;;;;;;;11.30;2.70;;;;;;;10.50;74.65;101369.61;108444;1254;70295;-77
2023/05/02 07:28:21;;;;;;;10.90;2.80;;;;;;;10.67;74.97;101370.79;107693;1254;71440;-77
2023/05/02 07:30:48;;;;;;;10.00;2.30;;;;;;;10.88;74.19;101370.94;107844;1253;61256;-76
2023/05/02 07:33:15;;;;;;;8.60;2.80;;;;;;;11.06;72.79;101380.89;107773;1259;61294;-77
2023/05/02 07:35:42;;;;;;;8.20;2.50;;;;;;;11.19;71.84;101391.02;107903;1254;75920;-76
2023/05/02 07:38:09;;;;;;;10.10;2.40;;;;;;;11.23;70.45;101393.30;108160;1254;69651;-76
2023/05/02 07:40:36;;;;;;;10.40;2.50;;;;;;;11.19;69.77;101395.63;108153;1254;71484;-77
2023/05/02 07:43:04;;;;;;;8.70;2.30;;;;;;;11.09;69.85;101396.03;108546;1254;60038;-77
2023/05/02 07:45:30;;;;;;;12.30;3.20;;;;;;;11.12;70.92;101399.56;107960;1253;61433;-76
2023/05/02 07:47:57;;;;;;;9.40;2.50;;;;;;;11.27;70.75;101403.42;107778;1255;73454;-77
2023/05/02 07:50:26;;;;;;;10.10;3.00;;;;;;;11.35;69.50;101408.63;107813;1253;71019;-77
2023/05/02 07:52:54;;;;;;;8.80;2.20;;;;;;;11.38;67.92;101413.81;107834;1254;72653;-75
2023/05/02 07:55:22;;;;;;;9.30;2.30;;;;;;;11.38;67.45;101414.54;108112;1254;61278;-76
2023/05/02 07:57:49;;;;;;;12.70;3.00;;;;;;;11.38;67.56;101418.23;108397;1253;61041;-78
2023/05/02 08:00:16;;;;;;;11.40;2.60;;;;;;;11.41;67.71;101422.32;107852;1253;74798;-78
2023/05/02 08:02:44;;;;;;;7.50;2.20;;;;;;;11.33;67.22;101424.77;108394;1253;68934;-77
2023/05/02 08:05:11;;;;;;;12.00;2.90;;;;;;;11.28;67.98;101425.67;108084;1253;70220;-78
2023/05/02 08:07:39;;;;;;;12.20;2.80;;;;;;;11.31;68.74;101431.56;107979;1254;61314;-77
2023/05/02 08:10:06;;;;;;;11.10;3.00;;;;;;;11.23;68.19;101431.89;108030;1254;61257;-77
2023/05/02 08:12:40;;;;;;;10.50;3.00;;;;;;;11.19;68.06;101438.17;107740;1254;74430;-76
2023/05/02 08:15:10;;;;;;;8.00;2.40;;;;;;;11.14;67.70;101442.02;108192;1258;71863;-75
2023/05/02 08:17:37;;;;;;;11.50;3.00;;;;;;;11.11;68.13;101445.94;108050;1254;72806;-76
2023/05/02 08:20:04;;;;;;;9.00;2.50;;;;;;;11.11;68.20;101454.52;108070;1253;61182;-74
2023/05/02 08:22:31;;;;;;;13.40;2.90;;;;;;;11.20;66.88;101463.75;108188;1253;60376;-76
2023/05/02 08:24:58;;;;;;;9.30;2.10;;;;;;;11.36;66.41;101465.53;108022;1254;74160;-74
2023/05/02 08:27:24;;;;;;;7.80;1.80;;;;;;;11.34;63.99;101479.91;107970;1254;69746;-74
2023/05/02 08:29:51;;;;;;;7.50;1.90;;;;;;;11.28;64.12;101468.67;108181;1253;70632;-74
2023/05/02 08:32:18;;;;;;;7.10;1.60;;;;;;;11.28;63.90;101476.13;108197;1254;61243;-74
2023/05/02 08:34:45;;;;;;;9.10;1.80;;;;;;;11.29;64.10;101478.36;108060;1253;61247;-72
2023/05/02 08:37:12;;;;;;;8.00;1.80;;;;;;;11.41;64.41;101476.38;107877;1253;75199;-71
2023/05/02 08:39:38;;;;;;;7.40;2.10;;;;;;;11.45;63.07;101488.38;108144;1253;70226;-72
2023/05/02 08:42:07;;;;;;;8.10;2.10;;;;;;;11.48;63.15;101481.69;108201;1254;72641;-71
2023/05/02 08:44:33;;;;;;;7.30;2.20;;;;;;;11.45;62.81;101490.16;107840;1253;61194;-73
2023/05/02 08:47:01;;;;;;;9.80;2.10;;;;;;;11.45;63.26;101488.91;108148;1254;61111;-71
2023/05/02 08:49:31;;;;;;;6.20;1.80;;;;;;;11.44;62.53;101499.83;108154;1254;75011;-72
2023/05/02 08:52:01;;;;;;;4.40;1.60;;;;;;;11.41;61.85;101502.02;108187;1253;70417;-74
2023/05/02 08:54:28;;;;;;;6.00;1.50;;;;;;;11.34;61.24;101507.44;108153;1254;72811;-70
2023/05/02 08:56:58;;;;;;;7.30;1.80;;;;;;;11.32;61.30;101507.02;107941;1254;61761;-71
2023/05/02 08:59:25;;;;;;;6.00;1.70;;;;;;;11.30;61.25;101521.48;108205;1253;59373;-71
2023/05/02 09:01:57;;;;;;;8.10;1.90;;;;;;;11.26;60.92;101526.06;108067;1254;74803;-71
2023/05/02 09:04:31;;;;;;;7.30;1.70;;;;;;;11.24;61.48;101532.14;107881;1252;70544;-71
2023/05/02 09:06:58;;;;;;;5.20;2.00;;;;;;;11.14;60.76;101542.91;108007;1253;73951;-72
2023/05/02 09:09:25;;;;;;;5.60;1.70;;;;;;;10.97;61.32;101546.45;107964;1253;61221;-71
2023/05/02 09:11:52;;;;;;;6.80;2.20;;;;;;;10.95;61.85;101548.06;108312;1254;61340;-71
2023/05/02 09:14:19;;;;;;;7.50;2.00;;;;;;;10.84;61.60;101549.38;107759;1253;72317;-73
2023/05/02 09:16:46;;;;;;;8.60;1.60;;;;;;;10.80;62.05;101551.82;108150;1253;69887;-70
2023/05/02 09:19:24;;;;;;;5.20;2.00;;;;;;;10.86;62.37;101552.86;108170;1254;72682;-71
2023/05/02 09:21:51;;;;;;;6.50;2.00;;;;;;;10.92;62.10;101558.94;108166;1254;61260;-72
2023/05/02 09:24:20;;;;;;;6.90;2.00;;;;;;;10.95;61.14;101561.30;107940;1254;61447;-72
2023/05/02 09:27:01;;;;;;;7.00;2.10;;;;;;;10.91;61.63;101570.70;108021;1256;73193;-71
2023/05/02 09:29:34;;;;;;;6.30;2.00;;;;;;;10.91;61.73;101582.28;107946;1253;70311;-72
2023/05/02 09:32:02;;;;;;;6.70;1.80;;;;;;;10.80;60.94;101582.48;108001;1257;72583;-73
2023/05/02 09:34:30;;;;;;;8.70;1.90;;;;;;;10.82;61.40;101579.30;107898;1253;61233;-70
2023/05/02 09:36:57;;;;;;;6.50;2.30;;;;;;;10.89;61.55;101582.50;108684;1252;62247;-72
2023/05/02 09:39:25;;;;;;;5.90;1.70;;;;;;;11.03;61.56;101581.39;108012;1254;74766;-76
2023/05/02 09:41:52;;;;;;;6.10;1.70;;;;;;;11.09;59.86;101589.00;107880;1256;69388;-72
2023/05/02 09:44:23;;;;;;;5.60;1.80;;;;;;;11.13;59.05;101590.85;107783;1256;71410;-71
2023/05/02 09:46:52;;;;;;;4.40;1.50;;;;;;;11.11;58.78;101600.94;107579;1252;62695;-72
2023/05/02 09:49:38;;;;;;;5.60;1.70;;;;;;;11.16;58.43;101600.97;108448;1254;61158;-71
2023/05/02 09:52:16;;;;;;;6.00;1.60;;;;;;;11.32;57.86;101602.39;108126;1253;74728;-71
2023/05/02 09:54:45;;;;;;;4.00;1.50;;;;;;;11.46;56.33;101601.43;108300;1254;71221;-71
2023/05/02 09:57:12;;;;;;;6.40;1.70;;;;;;;11.62;56.16;101595.03;108353;1254;71899;-72
2023/05/02 09:59:39;;;;;;;5.20;1.80;;;;;;;11.79;55.50;101599.08;107781;1254;61424;-73
2023/05/02 10:02:09;;;;;;;6.30;1.70;;;;;;;11.95;54.72;101599.38;107748;1259;61358;-73
2023/05/02 10:04:37;;;;;;;6.20;1.60;;;;;;;12.14;55.15;101598.48;107824;1255;73375;-73
2023/05/02 10:07:05;;;;;;;5.90;1.70;;;;;;;12.34;54.60;101601.82;108130;1254;71454;-72
2023/05/02 10:09:35;;;;;;;5.30;1.60;;;;;;;12.60;53.47;101604.20;107935;1255;72368;-72
2023/05/02 10:12:07;;;;;;;4.70;1.40;;;;;;;12.68;52.42;101611.08;107944;1252;60427;-72
2023/05/02 10:14:45;;;;;;;5.80;1.50;;;;;;;12.62;51.75;101612.65;107960;1252;61266;-72
2023/05/02 10:17:20;;;;;;;5.50;1.50;;;;;;;12.59;52.26;101614.75;108079;1257;73205;-73
2023/05/02 10:20:02;;;;;;;6.10;1.40;;;;;;;12.68;52.25;101619.48;107978;1254;70927;-73
2023/05/02 10:22:30;;;;;;;4.70;1.70;;;;;;;12.63;51.40;101624.48;107949;1257;72943;-72
2023/05/02 10:24:59;;;;;;;5.70;1.40;;;;;;;12.54;51.55;101621.70;108625;1254;61318;-72
2023/05/02 10:27:29;;;;;;;3.50;1.30;;;;;;;12.54;52.58;101623.13;108132;1254;61273;-72
2023/05/02 10:29:57;;;;;;;5.30;1.60;;;;;;;12.57;52.18;101627.36;108322;1254;73455;-74
2023/05/02 10:32:28;;;;;;;4.50;1.60;;;;;;;12.61;51.51;101629.25;107630;1255;70533;-71
2023/05/02 10:35:02;;;;;;;5.80;1.80;;;;;;;12.70;51.31;101628.86;108034;1254;71512;-71
2023/05/02 10:37:32;;;;;;;4.60;1.50;;;;;;;12.71;51.22;101631.61;107851;1254;61348;-72
2023/05/02 10:39:59;;;;;;;7.30;1.60;;;;;;;12.74;50.60;101631.93;108093;1253;59536;-72
2023/05/02 10:42:28;;;;;;;5.30;1.90;;;;;;;12.65;49.59;101639.51;108263;1253;74372;-71
2023/05/02 10:44:55;;;;;;;5.90;1.70;;;;;;;12.59;49.66;101635.54;108492;1253;70106;-71
2023/05/02 10:47:25;;;;;;;5.20;2.10;;;;;;;12.68;50.64;101639.38;107963;1254;73108;-72
2023/05/02 10:49:54;;;;;;;6.70;2.00;;;;;;;12.79;49.96;101641.91;107992;1253;61146;-71
2023/05/02 10:52:33;;;;;;;8.10;1.90;;;;;;;12.93;49.88;101649.09;107727;1254;60407;-73
2023/05/02 10:55:19;;;;;;;5.60;2.10;;;;;;;13.10;49.98;101643.70;108565;1252;73551;-72
2023/05/02 10:58:01;;;;;;;8.90;2.10;;;;;;;13.22;49.09;101645.72;108134;1253;69993;-73
2023/05/02 11:00:32;;;;;;;6.70;2.10;;;;;;;13.21;48.78;101646.75;108223;1256;71714;-73
2023/05/02 11:03:00;;;;;;;7.20;2.20;;;;;;;13.24;48.65;101648.89;108191;1253;61343;-73
2023/05/02 11:05:27;;;;;;;8.60;2.30;;;;;;;13.31;48.39;101650.11;108021;1252;61250;-73
2023/05/02 11:08:16;;;;;;;6.80;2.30;;;;;;;13.28;47.98;101658.17;108269;1254;74034;-74
2023/05/02 11:10:46;;;;;;;9.40;2.50;;;;;;;13.16;47.93;101651.72;109327;1254;70494;-73
2023/05/02 11:13:13;;;;;;;9.70;2.60;;;;;;;13.25;48.37;101653.93;108545;1255;72962;-73
2023/05/02 11:15:39;;;;;;;9.60;2.50;;;;;;;13.32;47.86;101656.20;107767;1254;59891;-73
2023/05/02 11:18:11;;;;;;;5.60;2.30;;;;;;;13.46;47.18;101656.48;109016;1254;60385;-73
2023/05/02 11:20:43;;;;;;;9.20;2.50;;;;;;;13.55;46.69;101666.13;108347;1254;75491;-73